Time;durP1;ratioP1;P1;durP2;ratioP2;P2;SDS_P1;SDS_P2;PMS_P1;PMS_P2;Temp;Humidity;BMP_temperature;BMP_pressure;BME280_temperature;BME280_humidity;BME280_pressure;Samples;Min_cycle;Max_cycle;Signal;HPM_P1;HPM_P2
2022/12/16 00:04:02;;;;;;;41.97;36.70;;;2.80;99.90;;;;;;10314250;28;20286;-78
2022/12/16 00:09:04;;;;;;;42.50;35.30;;;2.80;99.90;;;;;;10365618;28;20261;-77
2022/12/16 00:14:06;;;;;;;45.83;38.20;;;2.80;99.90;;;;;;10367146;28;20199;-77
2022/12/16 00:19:10;;;;;;;46.80;37.13;;;2.80;99.90;;;;;;10373010;28;20198;-81
2022/12/16 00:24:12;;;;;;;40.50;35.10;;;2.80;99.90;;;;;;10370433;28;20592;-78
2022/12/16 00:29:14;;;;;;;43.57;37.90;;;2.80;99.90;;;;;;10373103;28;20195;-79
2022/12/16 00:34:18;;;;;;;45.33;38.23;;;2.80;99.90;;;;;;10346780;28;20646;-79
2022/12/16 00:39:20;;;;;;;42.57;36.87;;;2.80;99.90;;;;;;10355749;28;20191;-80
2022/12/16 00:44:22;;;;;;;41.77;36.20;;;2.80;99.90;;;;;;10369945;28;21260;-80
2022/12/16 00:49:25;;;;;;;41.37;35.73;;;2.80;99.90;;;;;;10365183;28;20199;-79
2022/12/16 00:54:27;;;;;;;44.43;37.50;;;2.80;99.90;;;;;;10346644;28;20214;-78
2022/12/16 00:59:29;;;;;;;45.37;37.10;;;2.90;99.90;;;;;;10434443;22;20232;-77
2022/12/16 01:04:33;;;;;;;43.40;37.80;;;2.90;99.90;;;;;;10395884;28;20275;-77
2022/12/16 01:09:35;;;;;;;41.53;35.70;;;2.90;99.90;;;;;;10418627;28;20228;-78
2022/12/16 01:14:37;;;;;;;45.87;37.33;;;2.80;99.90;;;;;;10440969;28;20719;-78
2022/12/16 01:19:41;;;;;;;39.77;35.43;;;2.80;99.90;;;;;;10418608;28;20237;-78
2022/12/16 01:24:44;;;;;;;43.10;37.07;;;2.80;99.90;;;;;;10428782;28;20219;-78
2022/12/16 01:29:46;;;;;;;41.33;34.70;;;2.80;99.90;;;;;;10441026;28;20672;-78
2022/12/16 01:34:51;;;;;;;42.97;36.87;;;2.80;99.90;;;;;;10419019;28;20197;-78
2022/12/16 01:39:53;;;;;;;40.67;35.73;;;2.80;99.90;;;;;;10418071;28;20205;-77
2022/12/16 01:44:55;;;;;;;41.30;36.67;;;2.80;99.90;;;;;;10435654;28;20213;-78
2022/12/16 01:50:04;;;;;;;43.00;36.30;;;2.80;99.90;;;;;;10433098;28;20568;-79
2022/12/16 01:55:09;;;;;;;43.10;35.57;;;2.80;99.90;;;;;;10416372;28;20466;-77
2022/12/16 02:00:12;;;;;;;43.60;36.30;;;2.70;99.90;;;;;;10451136;28;20204;-77
2022/12/16 02:05:22;;;;;;;41.00;34.80;;;2.70;99.90;;;;;;10410948;28;20283;-79
2022/12/16 02:10:32;;;;;;;42.77;36.00;;;2.70;99.90;;;;;;10398844;28;20263;-78
2022/12/16 02:15:42;;;;;;;41.77;35.17;;;2.70;99.90;;;;;;10433984;28;20652;-78
2022/12/16 02:21:08;;;;;;;42.03;36.70;;;2.70;99.90;;;;;;10414878;28;20256;-77
2022/12/16 02:26:27;;;;;;;38.20;34.03;;;2.70;99.90;;;;;;10432149;28;20267;-79
2022/12/16 02:31:37;;;;;;;42.53;36.23;;;2.70;99.90;;;;;;10445267;28;20190;-78
2022/12/16 02:36:57;;;;;;;41.50;35.70;;;2.70;99.90;;;;;;10427843;28;20416;-77
2022/12/16 02:42:06;;;;;;;39.90;35.10;;;2.70;99.90;;;;;;10443128;28;20223;-78
2022/12/16 02:47:10;;;;;;;40.97;34.77;;;2.70;99.90;;;;;;10433692;28;20267;-78
2022/12/16 02:52:13;;;;;;;39.13;34.23;;;2.70;99.90;;;;;;10437653;28;20256;-79
2022/12/16 02:57:31;;;;;;;41.63;35.20;;;2.70;99.90;;;;;;10454886;28;20225;-79
2022/12/16 03:02:46;;;;;;;41.90;35.50;;;2.70;99.90;;;;;;10456298;28;20213;-77
2022/12/16 03:07:52;;;;;;;40.10;33.60;;;2.60;99.90;;;;;;10442075;28;20271;-78
2022/12/16 03:12:55;;;;;;;40.23;34.17;;;2.60;99.90;;;;;;10448723;28;20235;-79
2022/12/16 03:18:00;;;;;;;40.43;34.30;;;2.50;99.90;;;;;;10449093;28;20286;-78
2022/12/16 03:23:06;;;;;;;38.17;33.53;;;2.50;99.90;;;;;;10445226;28;20256;-79
2022/12/16 03:28:19;;;;;;;39.73;33.10;;;2.50;99.90;;;;;;10441950;28;20271;-79
2022/12/16 03:33:27;;;;;;;36.20;32.13;;;2.50;99.90;;;;;;10447191;28;20204;-78
2022/12/16 03:38:32;;;;;;;35.87;32.07;;;2.50;99.90;;;;;;10425347;28;20218;-78
2022/12/16 03:43:35;;;;;;;38.40;33.03;;;2.60;99.90;;;;;;10445241;28;20249;-78
2022/12/16 03:48:46;;;;;;;37.13;32.37;;;2.50;99.90;;;;;;10406398;28;20217;-78
2022/12/16 03:53:48;;;;;;;36.03;29.17;;;2.60;99.90;;;;;;10431901;28;20193;-78
2022/12/16 03:58:50;;;;;;;35.40;31.63;;;2.60;99.90;;;;;;10387742;28;20598;-78
2022/12/16 04:03:53;;;;;;;36.30;32.23;;;2.60;99.90;;;;;;10447141;28;20673;-78
2022/12/16 04:08:57;;;;;;;36.43;31.57;;;2.70;99.90;;;;;;10408883;28;20721;-79
2022/12/16 04:24:45;;;;;;;34.00;30.40;;;2.60;99.90;;;;;;10419077;28;20224;-78
